createdAt,value
2022-08-26T00:02:10.727Z,3.98
2022-08-26T00:07:18.246Z,3.98
2022-08-26T00:12:25.842Z,3.98
2022-08-26T00:17:33.745Z,3.98
2022-08-26T00:22:41.779Z,3.99
2022-08-26T00:27:50.484Z,3.99
2022-08-26T00:32:58.881Z,3.98
2022-08-26T00:38:05.674Z,3.98
2022-08-26T00:43:12.221Z,3.98
2022-08-26T00:48:19.569Z,3.98
2022-08-26T00:53:26.621Z,3.97
2022-08-26T00:58:34.392Z,3.97
2022-08-26T01:03:41.673Z,3.98
2022-08-26T01:08:48.886Z,3.98
2022-08-26T01:13:56.349Z,3.98
2022-08-26T01:19:03.676Z,3.98
2022-08-26T01:24:10.844Z,3.98
2022-08-26T01:29:18.644Z,3.98
2022-08-26T01:34:27.350Z,3.97
2022-08-26T01:39:34.627Z,3.98
2022-08-26T01:44:42.151Z,3.97
2022-08-26T01:49:49.680Z,3.98
2022-08-26T01:54:56.366Z,3.97
2022-08-26T02:00:03.419Z,3.98
2022-08-26T02:05:10.919Z,3.97
2022-08-26T02:10:17.826Z,3.98
2022-08-26T02:15:25.043Z,3.96
2022-08-26T02:20:32.603Z,3.97
2022-08-26T02:25:40.260Z,3.96
2022-08-26T02:30:48.532Z,3.96
2022-08-26T02:35:56.181Z,3.96
2022-08-26T02:41:03.140Z,3.97
2022-08-26T02:46:11.638Z,3.96
2022-08-26T02:51:19.324Z,3.97
2022-08-26T02:56:27.414Z,3.96
2022-08-26T03:01:34.296Z,3.96
2022-08-26T03:06:42.132Z,3.96
2022-08-26T03:11:49.734Z,3.96
2022-08-26T03:16:57.514Z,3.96
2022-08-26T03:22:04.369Z,3.96
2022-08-26T03:27:14.011Z,3.96
2022-08-26T03:32:22.486Z,3.95
2022-08-26T03:37:35.269Z,3.95
2022-08-26T03:42:42.154Z,3.96
2022-08-26T03:47:50.044Z,3.92
2022-08-26T03:52:57.499Z,3.96
2022-08-26T03:58:05.738Z,3.96
2022-08-26T04:03:12.839Z,3.96
2022-08-26T04:08:20.999Z,3.96
2022-08-26T04:13:29.172Z,3.96
2022-08-26T04:18:36.453Z,3.96
2022-08-26T04:23:42.939Z,3.95
2022-08-26T04:28:52.253Z,3.96
2022-08-26T04:34:05.804Z,3.95
2022-08-26T04:39:14.011Z,3.95
2022-08-26T04:44:21.418Z,3.95
2022-08-26T04:49:29.470Z,3.95
2022-08-26T04:54:37.050Z,3.96
2022-08-26T04:59:45.667Z,3.96
2022-08-26T05:04:52.707Z,3.96
2022-08-26T05:09:59.136Z,3.94
2022-08-26T05:15:07.099Z,3.99
2022-08-26T05:20:15.148Z,3.97
2022-08-26T05:25:23.946Z,3.97
2022-08-26T05:30:32.414Z,3.96
2022-08-26T05:35:39.770Z,3.96
2022-08-26T05:40:48.089Z,3.97
2022-08-26T05:45:55.398Z,3.96
2022-08-26T05:51:02.640Z,3.97
2022-08-26T05:56:09.484Z,3.98
2022-08-26T06:01:17.845Z,3.97
2022-08-26T06:06:24.244Z,3.96
2022-08-26T06:11:31.755Z,3.98
2022-08-26T06:16:40.481Z,3.99
2022-08-26T06:21:49.135Z,4.00
2022-08-26T06:26:58.132Z,4.00
2022-08-26T06:32:05.941Z,4.01
2022-08-26T06:37:14.661Z,4.00
2022-08-26T06:42:23.055Z,4.01
2022-08-26T06:47:30.818Z,4.01
2022-08-26T06:52:38.010Z,4.01
2022-08-26T06:57:46.329Z,4.02
2022-08-26T07:02:54.240Z,4.01
2022-08-26T07:08:01.786Z,4.02
2022-08-26T07:13:09.647Z,4.03
2022-08-26T07:18:17.522Z,4.02
2022-08-26T07:23:25.366Z,4.03
2022-08-26T07:28:32.312Z,4.01
2022-08-26T07:33:40.231Z,4.00
2022-08-26T07:38:47.117Z,4.01
2022-08-26T07:43:54.802Z,4.00
2022-08-26T07:49:02.482Z,4.01
2022-08-26T07:54:10.334Z,4.00
2022-08-26T07:59:18.621Z,4.00
2022-08-26T08:04:26.118Z,4.01
2022-08-26T08:09:33.661Z,4.01
2022-08-26T08:14:41.475Z,4.01
2022-08-26T08:19:48.693Z,4.01
2022-08-26T08:24:55.960Z,4.01
2022-08-26T08:30:04.246Z,4.01
2022-08-26T08:35:11.693Z,4.01
2022-08-26T08:40:19.692Z,4.01
2022-08-26T08:45:27.291Z,4.01
2022-08-26T08:50:35.190Z,4.01
2022-08-26T08:55:42.319Z,4.01
2022-08-26T09:00:50.124Z,4.01
2022-08-26T09:05:57.470Z,4.01
2022-08-26T09:11:04.537Z,4.01
2022-08-26T09:16:12.381Z,4.01
2022-08-26T09:21:19.965Z,4.01
2022-08-26T09:26:26.775Z,4.01
2022-08-26T09:31:34.577Z,4.01
2022-08-26T09:36:42.256Z,4.01
2022-08-26T09:41:50.808Z,4.01
2022-08-26T09:46:58.570Z,4.01
2022-08-26T09:52:05.965Z,4.02
2022-08-26T09:57:14.657Z,4.01
2022-08-26T10:02:22.061Z,4.01
2022-08-26T10:07:30.135Z,4.01
2022-08-26T10:12:37.338Z,4.01
2022-08-26T10:17:45.684Z,4.01
2022-08-26T10:22:52.594Z,4.01
2022-08-26T10:28:01.173Z,4.01
2022-08-26T10:33:08.052Z,4.01
2022-08-26T10:38:15.932Z,4.01
2022-08-26T10:43:24.108Z,4.01
2022-08-26T10:48:31.709Z,4.01
2022-08-26T10:53:39.402Z,3.98
2022-08-26T10:58:46.173Z,4.02
2022-08-26T11:03:53.179Z,4.02
2022-08-26T11:09:01.020Z,4.02
2022-08-26T11:14:08.976Z,4.02
2022-08-26T11:19:17.202Z,4.02
2022-08-26T11:24:25.637Z,4.03
2022-08-26T11:29:33.010Z,4.02
2022-08-26T11:34:40.255Z,4.03
2022-08-26T11:39:49.276Z,4.02
2022-08-26T11:44:57.383Z,4.02
2022-08-26T11:50:05.234Z,4.03
2022-08-26T11:55:13.484Z,4.03
2022-08-26T12:00:20.786Z,4.02
2022-08-26T12:05:28.575Z,4.02
2022-08-26T12:10:36.400Z,4.02
2022-08-26T12:15:44.289Z,4.02
2022-08-26T12:20:51.366Z,4.02
2022-08-26T12:25:59.263Z,4.02
2022-08-26T12:31:07.827Z,4.02
2022-08-26T12:36:16.403Z,4.02
2022-08-26T12:41:24.176Z,4.03
2022-08-26T12:46:37.666Z,4.02
2022-08-26T12:51:44.225Z,4.02
2022-08-26T12:56:51.420Z,4.02
2022-08-26T13:01:59.267Z,4.03
2022-08-26T13:07:06.714Z,4.02
2022-08-26T13:12:13.703Z,4.03
2022-08-26T13:17:21.450Z,4.02
2022-08-26T13:22:29.671Z,4.03
2022-08-26T13:27:37.181Z,4.03
2022-08-26T13:32:44.549Z,4.04
2022-08-26T13:37:52.178Z,4.03
2022-08-26T13:43:00.319Z,4.02
2022-08-26T13:48:09.389Z,4.02
2022-08-26T13:53:16.317Z,4.03
2022-08-26T13:58:22.936Z,4.03
2022-08-26T14:03:30.400Z,4.03
2022-08-26T14:08:39.060Z,4.03
2022-08-26T14:13:46.201Z,4.03
2022-08-26T14:18:53.710Z,4.02
2022-08-26T14:25:32.978Z,4.03
2022-08-26T14:30:38.937Z,4.03
2022-08-26T14:35:45.504Z,4.03
2022-08-26T14:40:52.662Z,4.03
2022-08-26T14:46:00.509Z,4.04
2022-08-26T14:51:07.598Z,4.03
2022-08-26T14:56:16.595Z,4.05
2022-08-26T15:01:24.767Z,4.05
2022-08-26T15:06:32.248Z,4.04
2022-08-26T15:11:39.790Z,4.05
2022-08-26T15:16:47.451Z,4.05
2022-08-26T15:21:54.169Z,4.05
2022-08-26T15:27:01.375Z,4.05
2022-08-26T15:32:12.360Z,4.05
2022-08-26T15:37:20.219Z,4.04
2022-08-26T15:42:26.135Z,4.03
2022-08-26T15:47:32.701Z,4.03
2022-08-26T15:52:39.853Z,4.03
2022-08-26T15:57:46.638Z,4.03
2022-08-26T16:02:54.169Z,4.03
2022-08-26T16:08:01.068Z,4.02
2022-08-26T16:13:08.436Z,4.03
2022-08-26T16:18:14.893Z,4.03
2022-08-26T16:23:21.828Z,4.04
2022-08-26T16:28:29.332Z,4.04
2022-08-26T16:33:37.503Z,4.04
2022-08-26T16:38:44.636Z,4.03
2022-08-26T16:43:52.482Z,4.04
2022-08-26T16:48:59.403Z,4.03
2022-08-26T16:54:06.038Z,4.03
2022-08-26T16:59:14.305Z,4.04
2022-08-26T17:04:21.713Z,4.03
2022-08-26T17:09:29.826Z,4.00
2022-08-26T17:14:38.172Z,4.03
2022-08-26T17:19:46.013Z,4.03
2022-08-26T17:24:53.856Z,4.03
2022-08-26T17:30:00.544Z,4.03
2022-08-26T17:35:07.745Z,4.03
2022-08-26T17:40:15.356Z,4.02
2022-08-26T17:45:22.823Z,4.01
2022-08-26T17:50:30.673Z,4.02
2022-08-26T17:55:39.091Z,4.03
2022-08-26T18:00:47.026Z,4.02
2022-08-26T18:05:54.009Z,4.02
2022-08-26T18:11:00.250Z,4.03
2022-08-26T18:16:07.260Z,4.01
2022-08-26T18:21:14.464Z,4.02
2022-08-26T18:26:21.657Z,4.01
2022-08-26T18:31:29.823Z,4.02
2022-08-26T18:36:37.426Z,4.02
2022-08-26T18:41:45.294Z,4.02
2022-08-26T18:46:53.055Z,4.02
2022-08-26T18:52:04.112Z,4.01
2022-08-26T18:57:17.049Z,4.01
2022-08-26T19:02:23.581Z,4.01
2022-08-26T19:07:30.203Z,4.01
2022-08-26T19:12:37.342Z,4.01
2022-08-26T19:17:44.537Z,4.01
2022-08-26T19:23:06.731Z,4.02
2022-08-26T19:28:15.298Z,4.01
2022-08-26T19:33:23.049Z,4.00
2022-08-26T19:38:30.293Z,3.99
2022-08-26T19:43:44.731Z,4.01
2022-08-26T19:48:50.779Z,4.01
2022-08-26T19:53:58.620Z,4.00
2022-08-26T19:59:05.182Z,4.00
2022-08-26T20:04:12.955Z,4.01
2022-08-26T20:09:20.382Z,4.00
2022-08-26T20:14:28.104Z,4.00
2022-08-26T20:19:35.258Z,4.00
2022-08-26T20:24:42.462Z,3.99
2022-08-26T20:29:50.809Z,3.99
2022-08-26T20:34:58.896Z,3.99
2022-08-26T20:40:08.335Z,3.99
2022-08-26T20:45:15.308Z,4.00
2022-08-26T20:50:22.302Z,4.00
2022-08-26T20:55:29.634Z,4.00
2022-08-26T21:00:38.039Z,3.99
2022-08-26T21:05:43.882Z,4.00
2022-08-26T21:10:49.853Z,3.99
2022-08-26T21:15:58.808Z,3.98
2022-08-26T21:21:06.007Z,3.95
2022-08-26T21:26:13.344Z,3.98
2022-08-26T21:31:20.840Z,3.99
2022-08-26T21:36:28.373Z,3.98
2022-08-26T21:41:37.297Z,3.98
2022-08-26T21:46:45.038Z,3.98
2022-08-26T21:51:52.409Z,4.00
2022-08-26T21:56:59.935Z,3.98
2022-08-26T22:03:38.500Z,3.98
2022-08-26T22:08:45.020Z,3.99
2022-08-26T22:13:52.218Z,3.98
2022-08-26T22:18:59.646Z,3.99
2022-08-26T22:24:06.948Z,3.98
2022-08-26T22:29:15.724Z,3.98
2022-08-26T22:34:22.644Z,3.98
2022-08-26T22:39:30.175Z,3.98
2022-08-26T22:44:38.277Z,3.98
2022-08-26T22:49:45.819Z,3.98
2022-08-26T22:54:53.981Z,3.96
2022-08-26T23:00:02.019Z,3.98
2022-08-26T23:05:09.338Z,3.97
2022-08-26T23:10:16.566Z,3.98
2022-08-26T23:15:23.740Z,3.97
2022-08-26T23:20:32.533Z,3.98
2022-08-26T23:25:41.073Z,3.98
2022-08-26T23:30:49.347Z,3.98
2022-08-26T23:35:57.618Z,3.96
2022-08-26T23:41:04.861Z,3.97
2022-08-26T23:46:12.713Z,3.98
2022-08-26T23:51:20.603Z,3.96
2022-08-26T23:56:28.416Z,3.96
